createdAt,value
2022-11-04T00:00:34.940Z,95483.38
2022-11-04T00:03:01.743Z,95488.56
2022-11-04T00:05:28.508Z,95496.47
2022-11-04T00:08:13.701Z,95494.34
2022-11-04T00:11:15.714Z,95492.84
2022-11-04T00:13:42.790Z,95505.81
2022-11-04T00:16:28.830Z,95511.09
2022-11-04T00:18:56.093Z,95518.22
2022-11-04T00:21:41.133Z,95526.34
2022-11-04T00:24:30.654Z,95537.59
2022-11-04T00:27:16.914Z,95535.19
2022-11-04T00:29:44.165Z,95540.59
2022-11-04T00:32:29.400Z,95538.63
2022-11-04T00:34:56.248Z,95546.41
2022-11-04T00:37:23.554Z,95551.25
2022-11-04T00:39:50.343Z,95555.34
2022-11-04T00:42:17.137Z,95552.97
2022-11-04T00:44:43.925Z,95554.22
2022-11-04T00:47:10.728Z,95556.16
2022-11-04T00:49:37.474Z,95556.41
2022-11-04T00:52:04.516Z,95556.28
2022-11-04T00:54:31.285Z,95565.66
2022-11-04T00:56:58.037Z,95569.00
2022-11-04T00:59:24.834Z,95577.50
2022-11-04T01:01:51.878Z,95582.06
2022-11-04T01:04:18.747Z,95582.66
2022-11-04T01:06:45.958Z,95596.72
2022-11-04T01:09:13.743Z,95598.91
2022-11-04T01:11:40.604Z,95602.56
2022-11-04T01:14:07.501Z,95600.38
2022-11-04T01:16:34.296Z,95604.97
2022-11-04T01:19:01.210Z,95606.13
2022-11-04T01:21:28.042Z,95622.84
2022-11-04T01:23:54.902Z,95621.97
2022-11-04T01:26:24.872Z,95626.53
2022-11-04T01:28:54.651Z,95624.66
2022-11-04T01:31:25.868Z,95636.81
2022-11-04T01:33:54.427Z,95631.53
2022-11-04T01:36:22.510Z,95627.72
2022-11-04T01:38:49.979Z,95624.97
2022-11-04T01:41:29.702Z,95631.28
2022-11-04T01:44:03.650Z,95633.50
2022-11-04T01:46:38.057Z,95633.97
2022-11-04T01:49:31.621Z,95627.66
2022-11-04T01:52:13.640Z,95636.56
2022-11-04T01:54:43.374Z,95630.81
2022-11-04T01:57:15.212Z,95628.72
2022-11-04T01:59:42.825Z,95626.66
2022-11-04T02:02:09.838Z,95620.59
2022-11-04T02:04:39.265Z,95617.38
2022-11-04T02:07:09.501Z,95607.09
2022-11-04T02:09:38.425Z,95608.00
2022-11-04T02:12:24.680Z,95602.94
2022-11-04T02:14:53.058Z,95613.28
2022-11-04T02:17:19.761Z,95602.13
2022-11-04T02:20:17.622Z,95601.44
2022-11-04T02:23:23.973Z,95598.16
2022-11-04T02:26:28.495Z,95594.44
2022-11-04T02:29:36.923Z,95601.84
2022-11-04T02:32:45.847Z,95607.81
2022-11-04T02:35:51.223Z,95614.66
2022-11-04T02:38:50.823Z,95606.66
2022-11-04T02:41:32.619Z,95613.22
2022-11-04T02:44:13.090Z,95618.31
2022-11-04T02:47:00.268Z,95621.63
2022-11-04T02:49:48.095Z,95621.41
2022-11-04T02:52:22.510Z,95618.19
2022-11-04T02:54:58.646Z,95623.38
2022-11-04T02:57:31.329Z,95619.34
2022-11-04T03:00:09.078Z,95615.50
2022-11-04T03:02:44.789Z,95625.78
2022-11-04T03:05:18.859Z,95618.44
2022-11-04T03:07:48.356Z,95613.97
2022-11-04T03:10:38.793Z,95607.19
2022-11-04T03:13:15.900Z,95606.75
2022-11-04T03:15:59.791Z,95605.88
2022-11-04T03:19:01.900Z,95617.97
2022-11-04T03:21:31.553Z,95610.28
2022-11-04T03:23:58.493Z,95607.22
2022-11-04T03:27:04.516Z,95601.78
2022-11-04T03:29:35.157Z,95602.44
2022-11-04T03:32:56.183Z,95609.69
2022-11-04T03:35:23.398Z,95615.81
2022-11-04T03:37:50.295Z,95618.75
2022-11-04T03:40:19.343Z,95624.34
2022-11-04T03:43:11.242Z,95631.19
2022-11-04T03:45:41.685Z,95638.22
2022-11-04T03:48:10.093Z,95637.75
2022-11-04T03:50:47.582Z,95634.41
2022-11-04T03:53:22.539Z,95639.59
2022-11-04T03:56:38.348Z,95633.97
2022-11-04T04:00:01.776Z,95630.88
2022-11-04T04:02:59.662Z,95628.25
2022-11-04T04:05:35.295Z,95635.81
2022-11-04T04:08:25.563Z,95641.88
2022-11-04T04:11:33.832Z,95637.84
2022-11-04T04:14:41.645Z,95635.41
2022-11-04T04:17:31.538Z,95622.25
2022-11-04T04:20:19.801Z,95612.41
2022-11-04T04:23:01.635Z,95610.44
2022-11-04T04:25:50.473Z,95601.97
2022-11-04T04:28:19.531Z,95604.00
2022-11-04T04:30:46.852Z,95595.97
2022-11-04T04:33:16.765Z,95602.84
2022-11-04T04:35:54.046Z,95611.31
2022-11-04T04:38:42.911Z,95611.81
2022-11-04T04:41:38.785Z,95608.84
2022-11-04T04:44:50.906Z,95613.09
2022-11-04T04:47:23.154Z,95619.50
2022-11-04T04:49:56.340Z,95612.63
2022-11-04T04:52:28.018Z,95583.81
2022-11-04T04:54:54.832Z,95563.22
2022-11-04T04:57:21.629Z,95563.41
2022-11-04T04:59:48.455Z,95569.13
2022-11-04T05:02:15.379Z,95579.28
2022-11-04T05:04:42.264Z,95598.47
2022-11-04T05:07:09.969Z,95613.81
2022-11-04T05:09:37.166Z,95624.03
2022-11-04T05:12:04.376Z,95635.00
2022-11-04T05:14:31.168Z,95628.06
2022-11-04T05:16:58.123Z,95614.44
2022-11-04T05:19:24.959Z,95622.88
2022-11-04T05:21:51.781Z,95617.16
2022-11-04T05:24:18.549Z,95628.00
2022-11-04T05:26:45.366Z,95632.88
2022-11-04T05:29:12.476Z,95635.75
2022-11-04T05:31:39.789Z,95639.81
2022-11-04T05:34:06.586Z,95639.81
2022-11-04T05:36:33.489Z,95628.88
2022-11-04T05:39:00.295Z,95621.09
2022-11-04T05:41:27.247Z,95626.06
2022-11-04T05:43:56.293Z,95630.13
2022-11-04T05:46:23.612Z,95626.59
2022-11-04T05:48:51.099Z,95629.06
2022-11-04T05:51:26.247Z,95625.38
2022-11-04T05:53:53.590Z,95634.69
2022-11-04T05:56:20.442Z,95631.91
2022-11-04T05:58:47.263Z,95651.34
2022-11-04T06:01:25.266Z,95656.34
2022-11-04T06:03:53.560Z,95657.34
2022-11-04T06:06:22.091Z,95655.00
2022-11-04T06:08:50.617Z,95658.63
2022-11-04T06:11:18.325Z,95661.50
2022-11-04T06:13:45.116Z,95665.97
2022-11-04T06:16:11.901Z,95659.22
2022-11-04T06:18:38.666Z,95669.31
2022-11-04T06:21:15.390Z,95678.06
2022-11-04T06:23:43.206Z,95672.19
2022-11-04T06:26:11.722Z,95683.06
2022-11-04T06:28:39.068Z,95692.41
2022-11-04T06:31:08.581Z,95693.66
2022-11-04T06:33:36.947Z,95685.97
2022-11-04T06:36:07.477Z,95687.22
2022-11-04T06:38:37.348Z,95677.56
2022-11-04T06:43:37.705Z,95669.53
2022-11-04T06:46:05.018Z,95670.09
2022-11-04T06:48:32.406Z,95666.63
2022-11-04T06:51:00.633Z,95666.88
2022-11-04T06:53:29.090Z,95668.09
2022-11-04T06:56:04.015Z,95659.19
2022-11-04T06:58:30.868Z,95661.63
2022-11-04T07:00:57.757Z,95654.00
2022-11-04T07:03:24.567Z,95650.59
2022-11-04T07:05:51.383Z,95660.25
2022-11-04T07:08:18.782Z,95646.69
2022-11-04T07:10:45.594Z,95640.41
2022-11-04T07:13:12.360Z,95630.94
2022-11-04T07:15:40.192Z,95635.38
2022-11-04T07:18:07.535Z,95638.41
2022-11-04T07:20:36.661Z,95637.56
2022-11-04T07:23:03.694Z,95642.19
2022-11-04T07:25:30.623Z,95654.75
2022-11-04T07:28:01.084Z,95665.63
2022-11-04T07:30:29.313Z,95665.22
2022-11-04T07:32:56.143Z,95666.78
2022-11-04T07:35:22.909Z,95676.53
2022-11-04T07:37:49.728Z,95684.38
2022-11-04T07:40:16.602Z,95679.13
2022-11-04T07:42:43.392Z,95680.94
2022-11-04T07:45:10.440Z,95700.78
2022-11-04T07:47:37.241Z,95699.31
2022-11-04T07:50:10.584Z,95718.53
2022-11-04T07:52:38.261Z,95725.81
2022-11-04T07:55:06.001Z,95727.44
2022-11-04T07:57:32.779Z,95711.66
2022-11-04T07:59:59.614Z,95715.72
2022-11-04T08:02:31.051Z,95724.59
2022-11-04T08:05:00.864Z,95724.22
2022-11-04T08:07:27.643Z,95723.44
2022-11-04T08:09:54.399Z,95731.47
2022-11-04T08:12:23.757Z,95739.19
2022-11-04T08:14:51.207Z,95732.28
2022-11-04T08:17:17.971Z,95719.63
2022-11-04T08:19:44.879Z,95717.13
2022-11-04T08:22:11.715Z,95708.03
2022-11-04T08:24:38.526Z,95697.88
2022-11-04T08:27:07.554Z,95695.44
2022-11-04T08:29:35.390Z,95691.00
2022-11-04T08:32:02.613Z,95686.16
2022-11-04T08:34:29.693Z,95677.81
2022-11-04T08:37:00.180Z,95688.88
2022-11-04T08:39:27.336Z,95664.16
2022-11-04T08:41:54.436Z,95659.47
2022-11-04T08:44:22.337Z,95658.09
2022-11-04T08:46:49.130Z,95658.91
2022-11-04T08:49:20.681Z,95670.28
2022-11-04T08:51:56.078Z,95668.25
2022-11-04T08:54:24.849Z,95671.84
2022-11-04T08:56:51.850Z,95671.50
2022-11-04T08:59:18.643Z,95683.22
2022-11-04T09:01:45.518Z,95678.50
2022-11-04T09:04:13.712Z,95664.69
2022-11-04T09:06:43.853Z,95650.47
2022-11-04T09:09:15.187Z,95652.38
2022-11-04T09:11:44.033Z,95662.84
2022-11-04T09:14:11.703Z,95672.50
2022-11-04T09:16:40.169Z,95671.28
2022-11-04T09:19:07.382Z,95648.56
2022-11-04T09:21:34.298Z,95643.78
2022-11-04T09:24:01.116Z,95644.06
2022-11-04T09:26:28.393Z,95640.53
2022-11-04T09:28:57.778Z,95632.44
2022-11-04T09:31:26.742Z,95630.91
2022-11-04T09:33:55.608Z,95627.13
2022-11-04T09:36:23.034Z,95632.81
2022-11-04T09:38:49.819Z,95637.03
2022-11-04T09:41:42.404Z,95630.31
2022-11-04T09:45:20.655Z,95622.28
2022-11-04T09:47:49.717Z,95632.38
2022-11-04T09:50:23.836Z,95640.41
2022-11-04T09:53:09.450Z,95647.63
2022-11-04T09:55:41.691Z,95655.59
2022-11-04T09:58:14.571Z,95648.31
2022-11-04T10:00:48.781Z,95653.56
2022-11-04T10:03:49.852Z,95645.88
2022-11-04T10:06:44.026Z,95654.50
2022-11-04T10:09:32.578Z,95647.28
2022-11-04T10:12:30.999Z,95655.59
2022-11-04T10:15:39.932Z,95652.69
2022-11-04T10:18:33.317Z,95642.75
2022-11-04T10:21:38.756Z,95646.28
2022-11-04T10:24:29.656Z,95636.28
2022-11-04T10:27:05.243Z,95635.59
2022-11-04T10:29:42.939Z,95636.88
2022-11-04T10:32:40.252Z,95646.38
2022-11-04T10:35:40.655Z,95634.91
2022-11-04T10:38:17.697Z,95638.34
2022-11-04T10:40:51.693Z,95629.88
2022-11-04T10:43:39.240Z,95616.22
2022-11-04T10:46:38.752Z,95621.97
2022-11-04T10:49:33.665Z,95605.22
2022-11-04T10:52:00.724Z,95602.50
2022-11-04T10:54:28.179Z,95595.47
2022-11-04T10:56:56.510Z,95590.47
2022-11-04T10:59:28.706Z,95577.63
2022-11-04T11:01:58.927Z,95583.16
2022-11-04T11:04:30.152Z,95595.44
2022-11-04T11:07:00.127Z,95591.44
2022-11-04T11:09:30.965Z,95595.19
2022-11-04T11:12:29.553Z,95599.84
2022-11-04T11:14:53.582Z,95593.59
2022-11-04T11:17:38.288Z,95588.47
2022-11-04T11:20:14.820Z,95580.75
2022-11-04T11:22:44.520Z,95592.91
2022-11-04T11:25:30.061Z,95593.63
2022-11-04T11:27:58.072Z,95600.84
2022-11-04T11:30:41.989Z,95595.16
2022-11-04T11:33:28.310Z,95605.78
2022-11-04T11:36:12.125Z,95616.22
2022-11-04T11:39:03.440Z,95617.53
2022-11-04T11:41:39.573Z,95614.00
2022-11-04T11:44:31.727Z,95607.47
2022-11-04T11:47:03.738Z,95604.84
2022-11-04T11:49:34.704Z,95603.53
2022-11-04T11:52:35.113Z,95610.69
2022-11-04T11:55:15.977Z,95618.25
2022-11-04T12:00:48.354Z,95615.91
2022-11-04T12:10:59.309Z,95599.69
2022-11-04T12:13:30.582Z,95598.41
2022-11-04T12:16:14.745Z,95599.69
2022-11-04T12:19:10.019Z,95612.56
2022-11-04T12:21:49.457Z,95605.44
2022-11-04T12:24:47.375Z,95602.63
2022-11-04T12:27:26.468Z,95604.63
2022-11-04T12:30:12.731Z,95608.19
2022-11-04T12:32:53.348Z,95602.38
2022-11-04T12:35:55.840Z,95612.59
2022-11-04T12:38:46.704Z,95611.47
2022-11-04T12:42:19.603Z,95617.00
2022-11-04T12:45:01.484Z,95618.03
2022-11-04T12:47:40.936Z,95607.63
2022-11-04T12:50:35.689Z,95608.72
2022-11-04T12:53:20.821Z,95602.97
2022-11-04T12:56:07.975Z,95615.56
2022-11-04T12:59:04.284Z,95622.13
2022-11-04T13:01:39.091Z,95635.16
2022-11-04T13:04:42.836Z,95667.69
2022-11-04T13:07:37.327Z,95668.34
2022-11-04T13:10:20.631Z,95663.00
2022-11-04T13:12:50.790Z,95670.06
2022-11-04T13:15:23.500Z,95669.06
2022-11-04T13:17:56.614Z,95668.78
2022-11-04T13:20:35.617Z,95667.19
2022-11-04T13:23:15.261Z,95663.81
2022-11-04T13:25:45.512Z,95663.66
2022-11-04T13:28:20.871Z,95660.16
2022-11-04T13:31:17.491Z,95665.34
2022-11-04T13:33:59.580Z,95667.31
2022-11-04T13:36:53.826Z,95663.34
2022-11-04T13:39:36.615Z,95662.28
2022-11-04T13:42:35.892Z,95662.66
2022-11-04T13:45:14.050Z,95659.41
2022-11-04T13:47:51.774Z,95666.56
2022-11-04T13:50:36.956Z,95674.03
2022-11-04T13:53:06.769Z,95676.69
2022-11-04T13:55:35.813Z,95671.06
2022-11-04T13:58:05.404Z,95673.72
2022-11-04T14:00:35.600Z,95673.63
2022-11-04T14:03:27.411Z,95669.16
2022-11-04T14:06:00.330Z,95674.59
2022-11-04T14:08:27.332Z,95667.38
2022-11-04T14:10:54.019Z,95670.13
2022-11-04T14:13:37.571Z,95678.28
2022-11-04T14:16:39.536Z,95664.97
2022-11-04T14:19:48.277Z,95668.25
2022-11-04T14:22:17.554Z,95662.28
2022-11-04T14:24:44.976Z,95665.13
2022-11-04T14:27:27.419Z,95669.72
2022-11-04T14:29:54.845Z,95674.22
2022-11-04T14:32:31.873Z,95678.94
2022-11-04T14:35:03.520Z,95683.53
2022-11-04T14:37:37.312Z,95678.09
2022-11-04T14:40:25.344Z,95688.50
2022-11-04T14:42:57.587Z,95682.31
2022-11-04T14:45:37.749Z,95687.97
2022-11-04T14:48:16.511Z,95689.47
2022-11-04T14:50:49.701Z,95692.13
2022-11-04T14:53:31.368Z,95690.53
2022-11-04T14:56:23.159Z,95692.56
2022-11-04T14:59:06.341Z,95700.97
2022-11-04T15:01:37.404Z,95701.75
2022-11-04T15:04:26.406Z,95702.94
2022-11-04T15:06:59.516Z,95697.06
2022-11-04T15:09:38.309Z,95698.31
2022-11-04T15:12:33.611Z,95690.78
2022-11-04T15:15:00.939Z,95696.66
2022-11-04T15:17:32.463Z,95699.13
2022-11-04T15:20:04.517Z,95697.41
2022-11-04T15:22:31.373Z,95700.41
2022-11-04T15:25:03.326Z,95701.88
2022-11-04T15:27:30.486Z,95703.00
2022-11-04T15:30:01.085Z,95706.63
2022-11-04T15:32:28.852Z,95707.13
2022-11-04T15:34:57.018Z,95705.09
2022-11-04T15:37:25.829Z,95711.38
2022-11-04T15:39:55.567Z,95713.28
2022-11-04T15:42:43.662Z,95727.44
2022-11-04T15:45:22.638Z,95725.22
2022-11-04T15:47:50.772Z,95727.50
2022-11-04T15:50:25.931Z,95730.69
2022-11-04T15:52:55.583Z,95741.38
2022-11-04T15:55:26.054Z,95739.78
2022-11-04T15:57:55.400Z,95741.75
2022-11-04T16:00:25.123Z,95744.97
2022-11-04T16:02:57.193Z,95737.34
2022-11-04T16:05:33.210Z,95738.94
2022-11-04T16:08:20.405Z,95742.59
2022-11-04T16:10:47.998Z,95752.66
2022-11-04T16:13:14.835Z,95746.81
2022-11-04T16:15:46.933Z,95754.69
2022-11-04T16:18:39.094Z,95756.13
2022-11-04T16:21:31.994Z,95742.81
2022-11-04T16:24:07.884Z,95742.63
2022-11-04T16:26:41.159Z,95741.44
2022-11-04T16:29:31.680Z,95734.78
2022-11-04T16:32:45.053Z,95744.28
2022-11-04T16:35:23.066Z,95746.75
2022-11-04T16:37:51.422Z,95748.78
2022-11-04T16:40:20.130Z,95744.34
2022-11-04T16:42:48.410Z,95742.75
2022-11-04T16:45:31.494Z,95748.81
2022-11-04T16:47:58.891Z,95748.44
2022-11-04T16:50:26.626Z,95756.50
2022-11-04T16:52:54.068Z,95761.38
2022-11-04T16:55:24.451Z,95763.78
2022-11-04T16:58:04.842Z,95759.94
2022-11-04T17:00:33.058Z,95770.25
2022-11-04T17:03:21.047Z,95769.81
2022-11-04T17:05:56.110Z,95779.91
2022-11-04T17:08:24.721Z,95768.22
2022-11-04T17:10:52.183Z,95773.84
2022-11-04T17:13:19.041Z,95777.47
2022-11-04T17:15:46.047Z,95780.72
2022-11-04T17:18:18.199Z,95782.91
2022-11-04T17:20:51.127Z,95787.59
2022-11-04T17:23:18.624Z,95788.78
2022-11-04T17:25:46.499Z,95796.03
2022-11-04T17:28:16.437Z,95800.06
2022-11-04T17:30:44.784Z,95792.81
2022-11-04T17:33:16.785Z,95793.63
2022-11-04T17:35:48.251Z,95806.50
2022-11-04T17:38:15.800Z,95815.41
2022-11-04T17:41:01.784Z,95810.94
2022-11-04T17:43:47.149Z,95814.38
2022-11-04T17:46:33.986Z,95817.41
2022-11-04T17:49:03.660Z,95812.56
2022-11-04T17:51:31.332Z,95821.41
2022-11-04T17:53:58.428Z,95821.84
2022-11-04T17:56:25.807Z,95825.47
2022-11-04T17:58:53.452Z,95823.66
2022-11-04T18:01:23.149Z,95840.78
2022-11-04T18:03:53.385Z,95835.13
2022-11-04T18:06:22.044Z,95851.28
2022-11-04T18:08:49.202Z,95852.88
2022-11-04T18:11:34.958Z,95851.28
2022-11-04T18:14:01.770Z,95843.63
2022-11-04T18:16:28.735Z,95835.53
2022-11-04T18:18:57.712Z,95840.78
2022-11-04T18:21:25.145Z,95849.19
2022-11-04T18:23:52.039Z,95848.97
2022-11-04T18:26:18.996Z,95848.78
2022-11-04T18:28:45.759Z,95853.38
2022-11-04T18:31:33.120Z,95852.94
2022-11-04T18:34:02.695Z,95861.94
2022-11-04T18:36:31.229Z,95863.91
2022-11-04T18:38:58.059Z,95869.72
2022-11-04T18:41:25.143Z,95864.25
2022-11-04T18:43:52.282Z,95874.13
2022-11-04T18:46:19.819Z,95872.06
2022-11-04T18:48:51.519Z,95875.91
2022-11-04T18:51:22.064Z,95875.25
2022-11-04T18:53:50.539Z,95878.03
2022-11-04T18:56:22.744Z,95878.19
2022-11-04T18:58:51.162Z,95871.34
2022-11-04T19:01:20.370Z,95870.72
2022-11-04T19:03:47.757Z,95872.13
2022-11-04T19:06:24.977Z,95877.72
2022-11-04T19:08:56.053Z,95876.50
2022-11-04T19:11:27.577Z,95882.53
2022-11-04T19:13:58.640Z,95890.19
2022-11-04T19:16:26.951Z,95887.34
2022-11-04T19:18:54.866Z,95894.31
2022-11-04T19:21:24.153Z,95892.84
2022-11-04T19:23:51.112Z,95892.00
2022-11-04T19:26:25.529Z,95893.97
2022-11-04T19:28:52.405Z,95898.84
2022-11-04T19:31:23.878Z,95905.25
2022-11-04T19:33:51.740Z,95918.69
2022-11-04T19:36:22.202Z,95929.47
2022-11-04T19:38:54.055Z,95935.19
2022-11-04T19:41:40.896Z,95938.56
2022-11-04T19:44:12.995Z,95941.53
2022-11-04T19:46:40.351Z,95943.88
2022-11-04T19:49:08.012Z,95950.28
2022-11-04T19:51:36.533Z,95954.25
2022-11-04T19:54:04.169Z,95960.31
2022-11-04T19:56:33.422Z,95969.13
2022-11-04T19:59:05.880Z,95973.81
2022-11-04T20:01:34.781Z,95967.44
2022-11-04T20:04:03.453Z,95975.97
2022-11-04T20:06:32.190Z,95970.50
2022-11-04T20:09:05.183Z,95981.94
2022-11-04T20:11:59.904Z,95979.06
2022-11-04T20:14:28.353Z,95984.56
2022-11-04T20:16:55.215Z,95979.59
2022-11-04T20:19:23.026Z,95987.56
2022-11-04T20:21:50.484Z,95997.09
2022-11-04T20:24:17.751Z,95995.56
2022-11-04T20:26:46.602Z,95996.38
2022-11-04T20:29:15.865Z,96012.03
2022-11-04T20:31:43.411Z,96016.94
2022-11-04T20:34:12.492Z,96021.91
2022-11-04T20:36:40.011Z,96025.84
2022-11-04T20:39:18.837Z,96026.91
2022-11-04T20:41:46.461Z,96030.16
2022-11-04T20:44:15.180Z,96027.28
2022-11-04T20:46:43.267Z,96024.59
2022-11-04T20:49:11.068Z,96030.00
2022-11-04T20:51:48.831Z,96038.63
2022-11-04T20:54:19.301Z,96041.56
2022-11-04T20:56:46.225Z,96039.34
2022-11-04T20:59:14.311Z,96042.56
2022-11-04T21:01:44.261Z,96041.94
2022-11-04T21:04:20.712Z,96049.06
2022-11-04T21:06:49.368Z,96037.19
2022-11-04T21:09:20.162Z,96053.97
2022-11-04T21:11:47.680Z,96063.69
2022-11-04T21:14:16.917Z,96059.63
2022-11-04T21:16:44.064Z,96058.00
2022-11-04T21:19:15.766Z,96061.97
2022-11-04T21:21:43.814Z,96062.28
2022-11-04T21:24:14.639Z,96060.22
2022-11-04T21:26:42.331Z,96066.94
2022-11-04T21:29:14.310Z,96070.38
2022-11-04T21:31:42.531Z,96068.56
2022-11-04T21:34:09.764Z,96067.38
2022-11-04T21:36:36.871Z,96075.69
2022-11-04T21:39:04.323Z,96076.34
2022-11-04T21:41:37.306Z,96072.06
2022-11-04T21:44:08.376Z,96076.19
2022-11-04T21:46:36.594Z,96073.44
2022-11-04T21:49:03.922Z,96077.44
2022-11-04T21:51:32.688Z,96075.97
2022-11-04T21:54:00.451Z,96077.66
2022-11-04T21:56:29.635Z,96073.63
2022-11-04T21:58:57.002Z,96075.97
2022-11-04T22:01:27.049Z,96067.63
2022-11-04T22:04:00.055Z,96068.44
2022-11-04T22:06:34.766Z,96064.84
2022-11-04T22:09:05.200Z,96072.06
2022-11-04T22:11:34.023Z,96071.47
2022-11-04T22:14:04.542Z,96068.91
2022-11-04T22:16:36.326Z,96073.78
2022-11-04T22:19:05.777Z,96070.31
2022-11-04T22:21:33.424Z,96075.94
2022-11-04T22:24:01.329Z,96079.47
2022-11-04T22:26:32.774Z,96078.16
2022-11-04T22:29:00.330Z,96070.16
2022-11-04T22:31:37.558Z,96077.47
2022-11-04T22:34:05.015Z,96087.00
2022-11-04T22:36:33.588Z,96080.78
2022-11-04T22:39:00.856Z,96085.66
2022-11-04T22:41:31.787Z,96094.75
2022-11-04T22:43:59.361Z,96097.03
2022-11-04T22:46:29.804Z,96101.16
2022-11-04T22:48:57.049Z,96103.06
2022-11-04T22:51:24.027Z,96096.81
2022-11-04T22:53:58.926Z,96096.56
2022-11-04T22:56:28.365Z,96098.28
2022-11-04T22:58:55.227Z,96100.47
2022-11-04T23:01:22.685Z,96099.56
2022-11-04T23:03:52.095Z,96103.34
2022-11-04T23:06:19.369Z,96098.47
2022-11-04T23:08:46.299Z,96092.63
2022-11-04T23:11:43.754Z,96110.91
2022-11-04T23:14:35.566Z,96116.03
2022-11-04T23:17:22.176Z,96110.72
2022-11-04T23:19:50.545Z,96121.44
2022-11-04T23:22:35.631Z,96123.72
2022-11-04T23:25:11.209Z,96129.94
2022-11-04T23:28:06.069Z,96127.50
2022-11-04T23:30:52.826Z,96130.91
2022-11-04T23:33:39.647Z,96128.56
2022-11-04T23:36:25.150Z,96122.66
2022-11-04T23:38:51.988Z,96121.59
2022-11-04T23:41:37.033Z,96116.63
2022-11-04T23:44:04.037Z,96130.25
2022-11-04T23:46:49.238Z,96124.63
2022-11-04T23:49:34.633Z,96136.63
2022-11-04T23:52:19.761Z,96131.31
2022-11-04T23:55:05.097Z,96130.69
2022-11-04T23:57:50.293Z,96125.56
